createdAt,value
2019-04-14T00:01:34.816Z,16.17
2019-04-14T00:04:22.606Z,17.00
2019-04-14T00:06:52.597Z,17.10
2019-04-14T00:09:22.742Z,19.30
2019-04-14T00:11:52.708Z,16.87
2019-04-14T00:14:22.924Z,17.30
2019-04-14T00:16:53.164Z,18.90
2019-04-14T00:19:23.831Z,16.40
2019-04-14T00:21:54.425Z,16.63
2019-04-14T00:24:25.651Z,16.63
2019-04-14T00:26:57.266Z,17.93
2019-04-14T00:29:30.634Z,16.90
2019-04-14T00:32:10.130Z,17.80
2019-04-14T00:35:06.570Z,16.87
2019-04-14T00:38:04.369Z,18.00
2019-04-14T00:40:53.902Z,16.10
2019-04-14T00:43:57.193Z,16.80
2019-04-14T00:46:51.713Z,15.97
2019-04-14T00:49:26.890Z,17.40
2019-04-14T00:52:03.527Z,17.13
2019-04-14T00:54:32.510Z,15.60
2019-04-14T00:57:03.145Z,15.40
2019-04-14T00:59:33.392Z,14.97
2019-04-14T01:02:03.461Z,16.03
2019-04-14T01:04:33.758Z,15.53
2019-04-14T01:07:04.286Z,14.57
2019-04-14T01:09:34.741Z,14.87
2019-04-14T01:12:04.188Z,14.70
2019-04-14T01:14:34.220Z,14.70
2019-04-14T01:17:04.776Z,14.33
2019-04-14T01:19:35.246Z,15.60
2019-04-14T01:22:05.363Z,14.53
2019-04-14T01:24:36.293Z,14.43
2019-04-14T01:27:08.022Z,14.30
2019-04-14T01:29:38.408Z,14.63
2019-04-14T01:32:08.825Z,14.57
2019-04-14T01:34:39.145Z,14.53
2019-04-14T01:37:09.391Z,14.87
2019-04-14T01:39:39.312Z,15.57
2019-04-14T01:42:09.537Z,14.90
2019-04-14T01:44:39.580Z,18.33
2019-04-14T01:47:09.467Z,16.07
2019-04-14T01:49:39.737Z,16.10
2019-04-14T01:52:27.447Z,16.40
2019-04-14T01:55:15.907Z,15.60
2019-04-14T01:58:05.304Z,16.33
2019-04-14T02:00:57.566Z,15.47
2019-04-14T02:03:28.108Z,15.47
2019-04-14T02:05:58.272Z,16.07
2019-04-14T02:08:28.423Z,16.63
2019-04-14T02:10:58.735Z,15.03
2019-04-14T02:13:28.954Z,16.07
2019-04-14T02:16:12.100Z,16.03
2019-04-14T02:18:29.810Z,15.67
2019-04-14T02:21:00.051Z,16.50
2019-04-14T02:23:30.212Z,14.73
2019-04-14T02:26:00.117Z,16.47
2019-04-14T02:28:30.933Z,15.20
2019-04-14T02:31:13.362Z,15.10
2019-04-14T02:34:00.786Z,16.23
2019-04-14T02:36:32.652Z,15.73
2019-04-14T02:44:09.147Z,15.73
2019-04-14T02:46:38.481Z,14.10
2019-04-14T02:51:33.515Z,16.13
2019-04-14T02:54:07.251Z,14.80
2019-04-14T02:56:58.956Z,16.73
2019-04-14T02:59:05.814Z,16.63
2019-04-14T03:01:42.282Z,16.73
2019-04-14T03:04:08.906Z,16.97
2019-04-14T03:06:44.513Z,17.63
2019-04-14T03:09:24.763Z,17.07
2019-04-14T03:14:17.073Z,16.60
2019-04-14T03:17:07.396Z,19.10
2019-04-14T03:19:46.539Z,16.90
2019-04-14T03:22:33.130Z,16.90
2019-04-14T03:25:03.067Z,15.87
2019-04-14T03:27:54.757Z,17.30
2019-04-14T03:33:18.381Z,16.93
2019-04-14T03:40:35.641Z,18.23
2019-04-14T03:45:46.761Z,17.47
2019-04-14T03:50:39.343Z,17.63
2019-04-14T03:55:55.348Z,17.87
2019-04-14T03:58:22.593Z,18.00
2019-04-14T04:00:53.218Z,18.47
2019-04-14T04:03:23.830Z,18.53
2019-04-14T04:05:54.246Z,19.33
2019-04-14T04:08:24.425Z,17.07
2019-04-14T04:10:55.418Z,17.93
2019-04-14T04:13:25.839Z,18.07
2019-04-14T04:15:58.308Z,18.43
2019-04-14T04:18:28.777Z,17.30
2019-04-14T04:21:16.275Z,19.43
2019-04-14T04:23:53.480Z,19.67
2019-04-14T04:26:34.272Z,19.60
2019-04-14T04:29:35.424Z,19.80
2019-04-14T04:32:14.253Z,19.60
2019-04-14T04:35:09.025Z,21.00
2019-04-14T04:38:00.890Z,20.57
2019-04-14T04:40:31.336Z,22.27
2019-04-14T04:43:01.260Z,21.70
2019-04-14T04:45:32.054Z,20.93
2019-04-14T04:48:02.402Z,21.80
2019-04-14T04:50:32.475Z,20.20
2019-04-14T04:53:02.690Z,20.33
2019-04-14T04:55:32.918Z,21.20
2019-04-14T04:58:03.415Z,21.07
2019-04-14T05:00:33.055Z,19.93
2019-04-14T05:03:04.390Z,21.47
2019-04-14T05:06:11.158Z,21.13
2019-04-14T05:08:52.270Z,22.20
2019-04-14T05:11:29.487Z,21.63
2019-04-14T05:14:02.233Z,21.50
2019-04-14T05:16:32.758Z,21.90
2019-04-14T05:19:14.037Z,21.67
2019-04-14T05:21:36.566Z,21.63
2019-04-14T05:24:07.189Z,21.23
2019-04-14T05:26:37.359Z,21.37
2019-04-14T05:29:07.788Z,20.87
2019-04-14T05:31:42.573Z,20.57
2019-04-14T05:34:13.589Z,21.37
2019-04-14T05:36:45.351Z,20.57
2019-04-14T05:39:15.643Z,21.87
2019-04-14T05:41:56.747Z,21.17
2019-04-14T05:44:36.442Z,21.03
2019-04-14T05:47:06.534Z,20.87
2019-04-14T05:49:44.207Z,21.57
2019-04-14T05:52:09.903Z,21.43
2019-04-14T05:55:02.467Z,21.30
2019-04-14T05:57:32.689Z,21.17
2019-04-14T06:00:03.733Z,19.83
2019-04-14T06:02:35.673Z,20.03
2019-04-14T06:05:09.063Z,18.27
2019-04-14T06:07:38.626Z,20.13
2019-04-14T06:10:13.685Z,20.23
2019-04-14T06:12:43.130Z,20.03
2019-04-14T06:15:23.603Z,20.90
2019-04-14T06:17:52.863Z,20.63
2019-04-14T06:20:22.681Z,22.13
2019-04-14T06:22:51.958Z,19.53
2019-04-14T06:28:41.975Z,20.40
2019-04-14T06:31:29.156Z,20.40
2019-04-14T06:34:02.979Z,20.70
2019-04-14T06:36:50.138Z,20.83
2019-04-14T06:39:22.726Z,20.17
2019-04-14T06:41:52.149Z,21.27
2019-04-14T06:44:21.412Z,21.17
2019-04-14T06:46:50.922Z,20.23
2019-04-14T06:49:20.213Z,20.53
2019-04-14T06:51:49.642Z,21.90
2019-04-14T06:54:18.898Z,21.60
2019-04-14T06:56:48.291Z,21.60
2019-04-14T06:59:17.643Z,21.93
2019-04-14T07:01:47.002Z,21.50
2019-04-14T07:04:16.234Z,20.70
2019-04-14T07:06:45.667Z,21.60
2019-04-14T07:09:14.943Z,20.40
2019-04-14T07:11:45.356Z,21.10
2019-04-14T07:14:14.603Z,21.77
2019-04-14T07:16:44.042Z,22.33
2019-04-14T07:19:13.486Z,21.80
2019-04-14T07:21:42.771Z,21.97
2019-04-14T07:24:12.549Z,19.93
2019-04-14T07:26:47.026Z,22.07
2019-04-14T07:29:16.556Z,22.03
2019-04-14T07:32:06.672Z,21.53
2019-04-14T07:37:49.250Z,21.97
2019-04-14T07:40:26.533Z,23.33
2019-04-14T07:43:13.637Z,23.53
2019-04-14T07:45:54.188Z,22.37
2019-04-14T07:48:36.926Z,22.43
2019-04-14T07:51:22.391Z,20.30
2019-04-14T07:53:56.763Z,21.30
2019-04-14T07:56:59.296Z,22.70
2019-04-14T07:59:49.955Z,21.53
2019-04-14T08:02:32.773Z,20.97
2019-04-14T08:05:07.424Z,21.37
2019-04-14T08:07:36.978Z,20.07
2019-04-14T08:10:09.170Z,22.63
2019-04-14T08:12:38.937Z,21.57
2019-04-14T08:15:08.598Z,21.00
2019-04-14T08:17:37.926Z,20.20
2019-04-14T08:20:07.929Z,19.67
2019-04-14T08:22:37.655Z,20.70
2019-04-14T08:25:07.167Z,21.40
2019-04-14T08:27:36.429Z,21.27
2019-04-14T08:30:07.079Z,21.20
2019-04-14T08:32:36.444Z,20.00
2019-04-14T08:35:06.128Z,21.13
2019-04-14T08:37:35.645Z,22.10
2019-04-14T08:40:05.986Z,21.60
2019-04-14T08:42:56.089Z,22.37
2019-04-14T08:45:44.735Z,23.27
2019-04-14T08:48:22.990Z,21.07
2019-04-14T08:51:09.522Z,21.90
2019-04-14T08:53:52.120Z,22.17
2019-04-14T08:56:29.340Z,22.07
2019-04-14T08:59:23.819Z,21.37
2019-04-14T09:01:59.569Z,21.23
2019-04-14T09:05:00.250Z,22.53
2019-04-14T09:07:33.348Z,24.40
2019-04-14T09:10:09.871Z,23.70
2019-04-14T09:12:40.725Z,23.17
2019-04-14T09:15:10.004Z,22.77
2019-04-14T09:17:39.373Z,24.43
2019-04-14T09:20:10.062Z,22.77
2019-04-14T09:22:41.644Z,23.00
2019-04-14T09:25:11.086Z,23.73
2019-04-14T09:27:42.003Z,24.63
2019-04-14T09:30:15.205Z,23.90
2019-04-14T09:32:45.478Z,24.43
2019-04-14T09:35:25.230Z,23.43
2019-04-14T09:37:52.285Z,23.70
2019-04-14T09:40:25.220Z,23.40
2019-04-14T09:43:00.407Z,23.90
2019-04-14T09:45:29.632Z,23.57
2019-04-14T09:48:01.513Z,24.47
2019-04-14T09:50:30.749Z,23.27
2019-04-14T09:53:07.024Z,22.97
2019-04-14T09:55:54.016Z,22.77
2019-04-14T09:58:43.304Z,21.03
2019-04-14T10:01:14.418Z,23.03
2019-04-14T10:03:51.392Z,20.83
2019-04-14T10:06:20.738Z,20.33
2019-04-14T10:08:50.230Z,20.40
2019-04-14T10:11:31.784Z,20.30
2019-04-14T10:14:01.310Z,20.40
2019-04-14T10:16:30.875Z,21.97
2019-04-14T10:19:00.234Z,20.97
2019-04-14T10:21:29.614Z,20.87
2019-04-14T10:23:59.945Z,21.17
2019-04-14T10:26:29.366Z,20.80
2019-04-14T10:28:58.718Z,20.70
2019-04-14T10:31:30.189Z,20.73
2019-04-14T10:33:59.595Z,20.70
2019-04-14T10:36:29.972Z,20.00
2019-04-14T10:39:00.009Z,21.33
2019-04-14T10:41:29.521Z,20.00
2019-04-14T10:43:58.863Z,20.33
2019-04-14T10:46:28.482Z,19.70
2019-04-14T10:48:59.178Z,20.37
2019-04-14T10:51:30.173Z,19.77
2019-04-14T10:53:59.985Z,20.27
2019-04-14T10:56:29.511Z,21.47
2019-04-14T10:58:58.801Z,20.97
2019-04-14T11:01:28.372Z,19.87
2019-04-14T11:03:59.737Z,20.50
2019-04-14T11:06:38.661Z,21.30
2019-04-14T11:09:13.008Z,20.43
2019-04-14T11:11:43.886Z,20.37
2019-04-14T11:14:13.446Z,20.90
2019-04-14T11:16:42.845Z,20.80
2019-04-14T11:19:12.205Z,19.73
2019-04-14T11:21:42.894Z,21.03
2019-04-14T11:24:16.003Z,20.90
2019-04-14T11:26:45.869Z,20.27
2019-04-14T11:29:15.449Z,21.80
2019-04-14T11:31:58.860Z,21.17
2019-04-14T11:34:38.134Z,21.93
2019-04-14T11:37:32.457Z,21.10
2019-04-14T11:40:02.595Z,21.47
2019-04-14T11:42:32.273Z,21.50
2019-04-14T11:45:01.798Z,22.67
2019-04-14T11:47:31.101Z,23.00
2019-04-14T11:50:00.727Z,21.47
2019-04-14T11:52:30.299Z,22.80
2019-04-14T11:54:59.697Z,23.80
2019-04-14T11:57:29.160Z,23.97
2019-04-14T12:00:16.355Z,23.47
2019-04-14T12:03:17.113Z,22.40
2019-04-14T12:06:04.463Z,23.50
2019-04-14T12:08:48.062Z,22.77
2019-04-14T12:11:17.503Z,23.13
2019-04-14T12:13:50.265Z,22.20
2019-04-14T12:16:19.798Z,23.33
2019-04-14T12:18:49.827Z,23.20
2019-04-14T12:21:19.126Z,22.90
2019-04-14T12:23:48.525Z,23.67
2019-04-14T12:26:17.958Z,24.93
2019-04-14T12:28:47.426Z,22.57
2019-04-14T12:31:17.434Z,25.13
2019-04-14T12:33:47.104Z,23.73
2019-04-14T12:36:16.792Z,24.17
2019-04-14T12:38:49.577Z,23.90
2019-04-14T12:41:24.556Z,23.83
2019-04-14T12:44:06.274Z,25.03
2019-04-14T12:46:54.645Z,22.67
2019-04-14T12:49:30.846Z,24.40
2019-04-14T12:52:23.698Z,24.30
2019-04-14T12:54:52.963Z,25.13
2019-04-14T12:57:41.618Z,24.20
2019-04-14T13:00:19.796Z,24.23
2019-04-14T13:02:50.639Z,25.03
2019-04-14T13:05:20.072Z,24.60
2019-04-14T13:07:49.327Z,25.53
2019-04-14T13:10:18.965Z,25.27
2019-04-14T13:12:48.274Z,25.80
2019-04-14T13:15:17.645Z,25.93
2019-04-14T13:17:47.266Z,25.67
2019-04-14T13:20:16.811Z,26.77
2019-04-14T13:22:48.838Z,27.03
2019-04-14T13:25:18.382Z,27.93
2019-04-14T13:27:48.649Z,27.90
2019-04-14T13:30:20.519Z,26.63
2019-04-14T13:32:49.862Z,27.67
2019-04-14T13:35:19.485Z,26.83
2019-04-14T13:37:48.795Z,27.60
2019-04-14T13:40:18.466Z,28.27
2019-04-14T13:42:48.973Z,28.27
2019-04-14T13:45:18.295Z,28.00
2019-04-14T13:47:47.606Z,28.53
2019-04-14T13:50:17.152Z,28.87
2019-04-14T13:52:47.456Z,28.17
2019-04-14T13:55:18.174Z,27.67
2019-04-14T13:57:47.422Z,28.97
2019-04-14T14:00:17.398Z,30.10
2019-04-14T14:02:47.105Z,28.93
2019-04-14T14:05:16.570Z,29.90
2019-04-14T14:07:46.829Z,30.37
2019-04-14T14:10:16.494Z,30.07
2019-04-14T14:12:53.683Z,29.37
2019-04-14T14:15:41.966Z,30.20
2019-04-14T14:18:28.941Z,31.97
2019-04-14T14:21:15.965Z,31.60
2019-04-14T14:24:01.541Z,30.50
2019-04-14T14:26:31.847Z,31.03
2019-04-14T14:29:01.183Z,31.67
2019-04-14T14:31:30.616Z,30.53
2019-04-14T14:34:00.049Z,32.00
2019-04-14T14:36:31.557Z,30.30
2019-04-14T14:39:00.862Z,32.60
2019-04-14T14:41:30.263Z,31.67
2019-04-14T14:43:59.547Z,41.73
2019-04-14T14:46:53.969Z,33.03
2019-04-14T14:49:51.279Z,31.83
2019-04-14T14:52:22.728Z,31.27
2019-04-14T14:54:51.979Z,30.67
2019-04-14T14:57:21.521Z,31.67
2019-04-14T14:59:50.883Z,31.33
2019-04-14T15:02:20.220Z,32.00
2019-04-14T15:04:50.062Z,32.13
2019-04-14T15:07:20.014Z,31.90
2019-04-14T15:09:49.282Z,30.30
2019-04-14T15:12:18.820Z,32.33
2019-04-14T15:14:48.239Z,31.50
2019-04-14T15:17:19.164Z,32.03
2019-04-14T15:19:48.873Z,30.10
2019-04-14T15:22:18.418Z,31.03
2019-04-14T15:24:47.744Z,31.17
2019-04-14T15:27:17.143Z,30.43
2019-04-14T15:29:46.474Z,29.90
2019-04-14T15:32:16.803Z,28.73
2019-04-14T15:34:46.081Z,31.40
2019-04-14T15:37:15.592Z,30.93
2019-04-14T15:39:45.068Z,30.63
2019-04-14T15:42:14.417Z,31.03
2019-04-14T15:44:43.880Z,30.90
2019-04-14T15:47:14.925Z,30.97
2019-04-14T15:49:49.795Z,32.57
2019-04-14T15:52:25.798Z,30.00
2019-04-14T15:54:57.917Z,31.20
2019-04-14T15:57:47.189Z,29.60
2019-04-14T16:00:37.632Z,32.07
2019-04-14T16:03:31.877Z,29.67
2019-04-14T16:06:34.912Z,29.93
2019-04-14T16:09:33.494Z,30.80
2019-04-14T16:12:23.743Z,33.03
2019-04-14T16:15:12.484Z,30.93
2019-04-14T16:17:47.849Z,31.60
2019-04-14T16:20:32.948Z,31.07
2019-04-14T16:23:18.550Z,31.70
2019-04-14T16:26:05.490Z,33.93
2019-04-14T16:28:48.962Z,30.13
2019-04-14T16:31:38.686Z,30.90
2019-04-14T16:34:32.129Z,31.67
2019-04-14T16:37:11.939Z,30.13
2019-04-14T16:39:45.238Z,30.27
2019-04-14T16:42:20.066Z,30.97
2019-04-14T16:44:51.644Z,33.03
2019-04-14T16:47:26.338Z,32.50
2019-04-14T16:50:00.345Z,30.50
2019-04-14T16:52:48.899Z,30.50
2019-04-14T16:55:29.797Z,30.43
2019-04-14T16:58:21.951Z,30.37
2019-04-14T17:01:02.682Z,30.70
2019-04-14T17:03:36.356Z,29.17
2019-04-14T17:06:08.045Z,30.57
2019-04-14T17:08:38.517Z,29.13
2019-04-14T17:11:09.711Z,30.47
2019-04-14T17:13:43.351Z,30.07
2019-04-14T17:16:36.708Z,31.13
2019-04-14T17:19:25.174Z,31.63
2019-04-14T17:22:12.852Z,29.90
2019-04-14T17:25:03.782Z,29.70
2019-04-14T17:28:00.637Z,32.70
2019-04-14T17:30:45.256Z,31.13
2019-04-14T17:33:39.996Z,30.80
2019-04-14T17:36:28.527Z,30.77
2019-04-14T17:39:20.423Z,30.93
2019-04-14T17:42:19.684Z,30.47
2019-04-14T17:45:16.772Z,31.73
2019-04-14T17:48:05.174Z,28.70
2019-04-14T17:51:04.050Z,29.30
2019-04-14T17:53:57.543Z,30.50
2019-04-14T17:56:58.090Z,31.90
2019-04-14T17:59:47.066Z,32.07
2019-04-14T18:02:38.843Z,30.73
2019-04-14T18:05:23.149Z,32.20
2019-04-14T18:08:08.826Z,31.23
2019-04-14T18:10:45.894Z,31.70
2019-04-14T18:13:46.170Z,32.03
2019-04-14T18:16:28.844Z,31.47
2019-04-14T18:19:10.623Z,30.57
2019-04-14T18:21:44.369Z,32.27
2019-04-14T18:24:15.027Z,31.73
2019-04-14T18:26:46.466Z,33.67
2019-04-14T18:29:55.112Z,32.63
2019-04-14T18:32:33.828Z,34.00
2019-04-14T18:35:21.797Z,32.67
2019-04-14T18:38:10.847Z,32.33
2019-04-14T18:40:59.297Z,33.50
2019-04-14T18:43:51.732Z,33.17
2019-04-14T18:46:39.431Z,33.47
2019-04-14T18:49:37.635Z,32.77
2019-04-14T18:52:51.504Z,33.20
2019-04-14T18:55:39.572Z,33.50
2019-04-14T18:58:33.279Z,32.37
2019-04-14T19:01:14.147Z,34.10
2019-04-14T19:03:46.761Z,35.53
2019-04-14T19:06:19.415Z,32.93
2019-04-14T19:09:06.556Z,33.60
2019-04-14T19:11:56.656Z,33.17
2019-04-14T19:14:39.738Z,33.60
2019-04-14T19:17:34.859Z,34.93
2019-04-14T19:20:07.042Z,35.67
2019-04-14T19:22:39.663Z,34.30
2019-04-14T19:25:10.981Z,35.40
2019-04-14T19:27:57.922Z,35.73
2019-04-14T19:30:27.859Z,33.37
2019-04-14T19:33:00.124Z,34.93
2019-04-14T19:35:31.256Z,35.17
2019-04-14T19:38:15.502Z,36.03
2019-04-14T19:40:56.335Z,36.40
2019-04-14T19:43:27.247Z,34.73
2019-04-14T19:45:58.475Z,35.23
2019-04-14T19:48:29.549Z,36.43
2019-04-14T19:51:02.126Z,37.17
2019-04-14T19:53:40.014Z,38.43
2019-04-14T19:56:16.707Z,37.97
2019-04-14T19:58:48.681Z,38.97
2019-04-14T20:01:22.026Z,40.00
2019-04-14T20:03:51.622Z,38.77
2019-04-14T20:06:28.047Z,39.77
2019-04-14T20:09:01.263Z,38.70
2019-04-14T20:11:38.143Z,41.27
2019-04-14T20:14:14.327Z,37.73
2019-04-14T20:17:06.036Z,39.73
2019-04-14T20:20:10.139Z,39.30
2019-04-14T20:23:02.748Z,36.90
2019-04-14T20:26:10.370Z,37.73
2019-04-14T20:28:55.646Z,39.23
2019-04-14T20:31:38.490Z,38.90
2019-04-14T20:34:12.781Z,37.93
2019-04-14T20:36:44.045Z,37.67
2019-04-14T20:39:19.935Z,38.57
2019-04-14T20:41:52.217Z,35.40
2019-04-14T20:44:23.854Z,39.40
2019-04-14T20:46:55.184Z,36.30
2019-04-14T20:49:25.449Z,35.83
2019-04-14T20:51:58.021Z,36.80
2019-04-14T20:54:28.894Z,36.47
2019-04-14T20:57:00.743Z,36.43
2019-04-14T20:59:30.391Z,37.27
2019-04-14T21:02:21.405Z,37.37
2019-04-14T21:05:09.290Z,37.20
2019-04-14T21:07:58.624Z,37.53
2019-04-14T21:10:41.457Z,37.97
2019-04-14T21:13:28.920Z,38.50
2019-04-14T21:16:16.753Z,36.33
2019-04-14T21:18:56.846Z,36.03
2019-04-14T21:21:34.589Z,37.37
2019-04-14T21:24:25.902Z,37.03
2019-04-14T21:27:17.013Z,36.30
2019-04-14T21:30:23.799Z,35.07
2019-04-14T21:32:58.426Z,36.33
2019-04-14T21:35:52.559Z,34.73
2019-04-14T21:38:46.005Z,34.60
2019-04-14T21:41:21.256Z,37.60
2019-04-14T21:43:51.054Z,37.43
2019-04-14T21:46:20.630Z,34.20
2019-04-14T21:48:49.961Z,35.10
2019-04-14T21:51:23.195Z,37.33
2019-04-14T21:53:53.301Z,35.40
2019-04-14T21:56:32.062Z,35.87
2019-04-14T21:59:14.328Z,36.17
2019-04-14T22:02:01.571Z,35.77
2019-04-14T22:05:08.338Z,36.90
2019-04-14T22:07:49.347Z,36.30
2019-04-14T22:10:33.199Z,36.63
2019-04-14T22:13:02.526Z,37.97
2019-04-14T22:15:34.129Z,35.83
2019-04-14T22:18:04.974Z,35.60
2019-04-14T22:20:34.502Z,32.83
2019-04-14T22:23:06.820Z,33.70
2019-04-14T22:25:36.910Z,33.63
2019-04-14T22:28:06.242Z,34.63
2019-04-14T22:30:36.876Z,35.13
2019-04-14T22:33:06.275Z,36.50
2019-04-14T22:35:35.762Z,33.90
2019-04-14T22:38:05.943Z,34.57
2019-04-14T22:40:35.377Z,34.40
2019-04-14T22:43:06.329Z,34.57
2019-04-14T22:45:35.975Z,32.73
2019-04-14T22:48:05.494Z,33.43
2019-04-14T22:50:34.827Z,36.37
2019-04-14T22:53:04.295Z,32.20
2019-04-14T22:55:34.971Z,34.93
2019-04-14T22:58:04.611Z,34.60
2019-04-14T23:00:44.354Z,33.20
2019-04-14T23:03:26.803Z,34.37
2019-04-14T23:06:04.592Z,34.57
2019-04-14T23:08:40.941Z,32.17
2019-04-14T23:11:34.249Z,31.63
2019-04-14T23:14:22.058Z,33.07
2019-04-14T23:17:18.017Z,32.67
2019-04-14T23:19:52.931Z,32.53
2019-04-14T23:22:45.359Z,32.93
2019-04-14T23:25:14.698Z,30.40
2019-04-14T23:27:44.085Z,32.30
2019-04-14T23:30:13.570Z,31.20
2019-04-14T23:32:43.694Z,32.20
2019-04-14T23:35:15.332Z,32.97
2019-04-14T23:37:44.701Z,33.63
2019-04-14T23:40:14.236Z,32.63
2019-04-14T23:42:43.612Z,30.67
2019-04-14T23:45:12.974Z,31.90
2019-04-14T23:47:42.427Z,33.13
2019-04-14T23:50:11.834Z,33.30
2019-04-14T23:52:41.218Z,31.27
2019-04-14T23:55:10.662Z,32.27
2019-04-14T23:57:40.094Z,33.37
